SLTR

Teniente Av. Jorge Henrich Arauz Airport

Trinidad, Bolivia
TAF SLTR 170400Z 1706/1806 00000KT 9999 FEW017 SCT070 TX33/1720Z TN23 /1710Z BECMG 1714/1717 33008KT SCT017 TEMPO 1718/1721 8000 SHRA FEW023CB
Issued Valid From Valid To
Dec-17 @ 04:00 UTC
(6 hours ago)
Dec-17 @ 06:00 UTC
(4 hours ago)
Dec-18 @ 06:00 UTC
(in 20 hours)
Dec-17 @ 06:00 to Dec-17 @ 14:00
TAF SLTR 170400Z 1706/1806 00000KT 9999 FEW017 SCT070 TX33/1720Z TN23 /1710Z
Visibility Clouds
10,000+ meters
  • Few at 1,700' AGL
  • Scattered at 7,000' AGL
Becoming Dec-17 @ 14:00 to Dec-18 @ 06:00
BECMG 1714/1717 33008KT SCT017
Wind Visibility Clouds
330° at 8 knots 10,000+ meters
  • Scattered at 1,700' AGL
Temporary Dec-17 @ 18:00 to Dec-17 @ 21:00
TEMPO 1718/1721 8000 SHRA FEW023CB
Visibility Clouds Conditions
7,998 meters
  • Few at 2,300' AGL
  • Rain
TAF SLTR 170400Z 1706/1806 00000KT 9999 FEW017 SCT070 TX33/1720Z TN23 /1710Z BECMG 1714/1717 33008KT SCT017 TEMPO 1718/1721 8000 SHRA FEW023CB
Issued Dec-17 @ 04:00 UTC
(6 hours ago)
Valid From Dec-17 @ 06:00 UTC
(4 hours ago)
Valid To Dec-18 @ 06:00 UTC
(in 20 hours)
Dec-17 @ 06:00 - Dec-17 @ 14:00
Clouds
  • Few at 1,700' AGL
  • Scattered at 7,000' AGL
Becoming Dec-17 @ 14:00 - Dec-18 @ 06:00
Wind Visibility
330° at 8 knots 10,000+ meters
Clouds
  • Scattered at 1,700' AGL
Temporary Dec-17 @ 18:00 - Dec-17 @ 21:00
Clouds
  • Few at 2,300' AGL
Conditions
  • Rain